Wind From: 11-12-2017 06:00 Until: 12-12-2017 06:00 warning for: Wind Level: Orange info button

Power and phone distribution networks may be disrupted for relatively long periods., Roofs and chimneys can be damaged. , Tree branches may break. , Vehicles can be deported. , Traffic may be disrupted, particularly on secondary roads in forest areas. Limit your trips. , Limit your speed in highway driving, especially if you drive a vehicle or hitch sensitive to wind. , Do not go for walks in forests or along the coast., In town, be vigilant against possible falling objects., Do not work on roofs and do not touch any electrical line fallen on the ground., Store or secure sensitive objects to wind or likely to be damaged., Always install power generators outside buildings. 


Meteo18 Weather Cam more information Meteo18 Weather Cam


Thunder radar more information blitzortung!


Rain radar more information rain snow radar


Visit our other weather sites:

Template documentation
and downloads

And another site



Weather Underground History page Text

Daily Summary for December 9, 2017 Units:  Both    English   Metric
« Previous Day
Next Day »
Daily Weekly Monthly Yearly Custom
  High: Low: Average:
Temperature: 34.7 °F /  1.5 °C 30.9 °F /  -0.6 °C 32.9 °F /  0.5 °C
Dew Point: 32.4 °F /  0.2 °C 28.9 °F /  -1.7 °C 30.7 °F /  -0.7 °C
Humidity: 94 % 90 % 92 %
Wind Speed: 10 mph /  16.1 km/h - 2.4 mph /  3.9 km/h
Wind Gust: 17 mph /  27.4 km/h - -
Wind:- - WSW
Pressure: 30.2 in /  1023.2 hPa 29.9 in /  1013.4 hPa -
Precipitation: 0.01 in /  0.3 mm    
Historical Graphs
 
 
Tabular Data for December 9, 2017
Time Temperature Dew Point Pressure Wind Wind Speed Wind Gust Humidity Rainfall Rate (Hourly)
00:02 33.6 °F /  0.9 °C 31.3 °F /  -0.4 °C 30.2 in /  1021.9 hPa WNW 7 mph /  11.3 km/h 13 mph /  20.9 km/h 91 % 0 in /  0.0 mm
00:07 33.6 °F /  0.9 °C 31.3 °F /  -0.4 °C 30.2 in /  1021.9 hPa West 2 mph /  3.2 km/h 13 mph /  20.9 km/h 91 % 0 in /  0.0 mm
00:12 33.4 °F /  0.8 °C 31.1 °F /  -0.5 °C 30.2 in /  1021.9 hPa NW 5 mph /  8.0 km/h 13 mph /  20.9 km/h 91 % 0 in /  0.0 mm
00:22 33.4 °F /  0.8 °C 31.1 °F /  -0.5 °C 30.2 in /  1021.9 hPa NW 4 mph /  6.4 km/h 13 mph /  20.9 km/h 91 % 0 in /  0.0 mm
00:42 33.1 °F /  0.6 °C 30.7 °F /  -0.7 °C 30.2 in /  1021.6 hPa NW 3 mph /  4.8 km/h 12 mph /  19.3 km/h 91 % 0 in /  0.0 mm
00:47 33.1 °F /  0.6 °C 30.7 °F /  -0.7 °C 30.2 in /  1021.6 hPa SSE 6 mph /  9.7 km/h 13 mph /  20.9 km/h 91 % 0 in /  0.0 mm
00:52 33.1 °F /  0.6 °C 30.7 °F /  -0.7 °C 30.2 in /  1021.6 hPa West 4 mph /  6.4 km/h 13 mph /  20.9 km/h 91 % 0 in /  0.0 mm
00:57 32.9 °F /  0.5 °C 30.6 °F /  -0.8 °C 30.2 in /  1021.6 hPa West 7 mph /  11.3 km/h 12 mph /  19.3 km/h 91 % 0 in /  0.0 mm
01:02 32.9 °F /  0.5 °C 30.4 °F /  -0.9 °C 30.2 in /  1021.6 hPa NW 3 mph /  4.8 km/h 12 mph /  19.3 km/h 90 % 0 in /  0.0 mm
01:12 32.7 °F /  0.4 °C 30.4 °F /  -0.9 °C 30.2 in /  1021.6 hPa WSW 6 mph /  9.7 km/h 12 mph /  19.3 km/h 91 % 0 in /  0.0 mm
01:17 32.7 °F /  0.4 °C 30.4 °F /  -0.9 °C 30.2 in /  1021.6 hPa West 6 mph /  9.7 km/h 13 mph /  20.9 km/h 91 % 0 in /  0.0 mm
01:22 32.5 °F /  0.3 °C 30.2 °F /  -1.0 °C 30.2 in /  1021.6 hPa NW 5 mph /  8.0 km/h 14 mph /  22.5 km/h 91 % 0 in /  0.0 mm
01:37 32.5 °F /  0.3 °C 30 °F /  -1.1 °C 30.2 in /  1021.6 hPa WNW 10 mph /  16.1 km/h 14 mph /  22.5 km/h 90 % 0 in /  0.0 mm
01:42 32.5 °F /  0.3 °C 30 °F /  -1.1 °C 30.2 in /  1021.6 hPa WNW 5 mph /  8.0 km/h 16 mph /  25.7 km/h 90 % 0 in /  0.0 mm
01:52 32.5 °F /  0.3 °C 30 °F /  -1.1 °C 30.2 in /  1021.6 hPa NW 6 mph /  9.7 km/h 11 mph /  17.7 km/h 90 % 0 in /  0.0 mm
02:02 32.4 °F /  0.2 °C 29.8 °F /  -1.2 °C 30.2 in /  1021.6 hPa WNW 2 mph /  3.2 km/h 11 mph /  17.7 km/h 90 % 0 in /  0.0 mm
02:12 32.2 °F /  0.1 °C 29.8 °F /  -1.2 °C 30.2 in /  1021.6 hPa WNW 2 mph /  3.2 km/h 11 mph /  17.7 km/h 91 % 0 in /  0.0 mm
02:17 32.2 °F /  0.1 °C 29.8 °F /  -1.2 °C 30.2 in /  1021.6 hPa WNW 3 mph /  4.8 km/h 9 mph /  14.5 km/h 91 % 0 in /  0.0 mm
02:37 32.2 °F /  0.1 °C 29.8 °F /  -1.2 °C 30.2 in /  1021.6 hPa WNW 1 mph /  1.6 km/h 10 mph /  16.1 km/h 91 % 0 in /  0.0 mm
02:42 32.2 °F /  0.1 °C 29.8 °F /  -1.2 °C 30.2 in /  1021.6 hPa WNW 7 mph /  11.3 km/h 11 mph /  17.7 km/h 91 % 0 in /  0.0 mm
02:52 32.2 °F /  0.1 °C 29.8 °F /  -1.2 °C 30.2 in /  1021.9 hPa WNW 6 mph /  9.7 km/h 13 mph /  20.9 km/h 91 % 0 in /  0.0 mm
02:57 32.2 °F /  0.1 °C 29.8 °F /  -1.2 °C 30.2 in /  1021.9 hPa WNW 5 mph /  8.0 km/h 13 mph /  20.9 km/h 91 % 0 in /  0.0 mm
03:07 32.2 °F /  0.1 °C 29.7 °F /  -1.3 °C 30.2 in /  1021.9 hPa NW 2 mph /  3.2 km/h 12 mph /  19.3 km/h 90 % 0 in /  0.0 mm
03:12 32 °F /  0.0 °C 29.5 °F /  -1.4 °C 30.2 in /  1021.9 hPa WNW 1 mph /  1.6 km/h 12 mph /  19.3 km/h 90 % 0 in /  0.0 mm
03:17 32 °F /  0.0 °C 29.7 °F /  -1.3 °C 30.2 in /  1021.9 hPa WNW 5 mph /  8.0 km/h 10 mph /  16.1 km/h 91 % 0 in /  0.0 mm
03:22 31.8 °F /  -0.1 °C 29.5 °F /  -1.4 °C 30.2 in /  1021.9 hPa NW 3 mph /  4.8 km/h 9 mph /  14.5 km/h 91 % 0 in /  0.0 mm
03:32 32 °F /  0.0 °C 29.7 °F /  -1.3 °C 30.2 in /  1021.9 hPa WNW 6 mph /  9.7 km/h 8 mph /  12.9 km/h 91 % 0 in /  0.0 mm
03:37 32 °F /  0.0 °C 29.7 °F /  -1.3 °C 30.2 in /  1021.9 hPa West 3 mph /  4.8 km/h 9 mph /  14.5 km/h 91 % 0 in /  0.0 mm
03:42 31.8 °F /  -0.1 °C 29.5 °F /  -1.4 °C 30.2 in /  1021.9 hPa WSW 1 mph /  1.6 km/h 9 mph /  14.5 km/h 91 % 0 in /  0.0 mm
03:52 31.8 °F /  -0.1 °C 29.5 °F /  -1.4 °C 30.2 in /  1021.9 hPa Calm   6 mph /  9.7 km/h 91 % 0 in /  0.0 mm
03:57 31.8 °F /  -0.1 °C 29.5 °F /  -1.4 °C 30.2 in /  1021.9 hPa Calm   6 mph /  9.7 km/h 91 % 0 in /  0.0 mm
04:02 31.8 °F /  -0.1 °C 29.5 °F /  -1.4 °C 30.2 in /  1022.2 hPa Calm   6 mph /  9.7 km/h 91 % 0 in /  0.0 mm
04:12 31.8 °F /  -0.1 °C 29.5 °F /  -1.4 °C 30.2 in /  1022.2 hPa West 3 mph /  4.8 km/h 4 mph /  6.4 km/h 91 % 0 in /  0.0 mm
04:22 31.8 °F /  -0.1 °C 29.5 °F /  -1.4 °C 30.2 in /  1021.9 hPa West 1 mph /  1.6 km/h 6 mph /  9.7 km/h 91 % 0 in /  0.0 mm
04:32 31.8 °F /  -0.1 °C 29.5 °F /  -1.4 °C 30.2 in /  1021.9 hPa WNW 5 mph /  8.0 km/h 6 mph /  9.7 km/h 91 % 0 in /  0.0 mm
04:37 32 °F /  0.0 °C 29.7 °F /  -1.3 °C 30.2 in /  1021.9 hPa West 2 mph /  3.2 km/h 6 mph /  9.7 km/h 91 % 0 in /  0.0 mm
04:42 32 °F /  0.0 °C 29.7 °F /  -1.3 °C 30.2 in /  1021.9 hPa WNW 3 mph /  4.8 km/h 7 mph /  11.3 km/h 91 % 0 in /  0.0 mm
04:52 32.2 °F /  0.1 °C 29.8 °F /  -1.2 °C 30.2 in /  1021.9 hPa West 4 mph /  6.4 km/h 7 mph /  11.3 km/h 91 % 0 in /  0.0 mm
05:02 32.2 °F /  0.1 °C 29.8 °F /  -1.2 °C 30.2 in /  1021.9 hPa WNW 1 mph /  1.6 km/h 10 mph /  16.1 km/h 91 % 0 in /  0.0 mm
05:22 32.2 °F /  0.1 °C 29.8 °F /  -1.2 °C 30.2 in /  1021.6 hPa WNW 3 mph /  4.8 km/h 10 mph /  16.1 km/h 91 % 0 in /  0.0 mm
05:37 32.2 °F /  0.1 °C 29.8 °F /  -1.2 °C 30.2 in /  1021.9 hPa WNW 3 mph /  4.8 km/h 8 mph /  12.9 km/h 91 % 0 in /  0.0 mm
05:52 32.2 °F /  0.1 °C 29.8 °F /  -1.2 °C 30.2 in /  1021.9 hPa West 2 mph /  3.2 km/h 7 mph /  11.3 km/h 91 % 0 in /  0.0 mm
05:57 32 °F /  0.0 °C 29.7 °F /  -1.3 °C 30.2 in /  1021.9 hPa West 2 mph /  3.2 km/h 7 mph /  11.3 km/h 91 % 0 in /  0.0 mm
06:02 32 °F /  0.0 °C 30 °F /  -1.1 °C 30.2 in /  1021.9 hPa West 2 mph /  3.2 km/h 7 mph /  11.3 km/h 92 % 0 in /  0.0 mm
06:12 31.8 °F /  -0.1 °C 29.5 °F /  -1.4 °C 30.2 in /  1021.9 hPa Calm   6 mph /  9.7 km/h 91 % 0 in /  0.0 mm
06:17 32 °F /  0.0 °C 30 °F /  -1.1 °C 30.2 in /  1021.9 hPa WNW 4 mph /  6.4 km/h 6 mph /  9.7 km/h 92 % 0 in /  0.0 mm
06:22 32 °F /  0.0 °C 30 °F /  -1.1 °C 30.2 in /  1021.9 hPa WSW 6 mph /  9.7 km/h 6 mph /  9.7 km/h 92 % 0 in /  0.0 mm
06:42 32 °F /  0.0 °C 29.7 °F /  -1.3 °C 30.2 in /  1021.9 hPa Calm   8 mph /  12.9 km/h 91 % 0 in /  0.0 mm
06:57 32.2 °F /  0.1 °C 30.2 °F /  -1.0 °C 30.2 in /  1022.2 hPa WNW 5 mph /  8.0 km/h 5 mph /  8.0 km/h 92 % 0 in /  0.0 mm
07:02 32.2 °F /  0.1 °C 30.2 °F /  -1.0 °C 30.2 in /  1022.2 hPa West 1 mph /  1.6 km/h 5 mph /  8.0 km/h 92 % 0 in /  0.0 mm
07:07 32.2 °F /  0.1 °C 30.2 °F /  -1.0 °C 30.2 in /  1022.2 hPa WSW 3 mph /  4.8 km/h 9 mph /  14.5 km/h 92 % 0 in /  0.0 mm
07:12 32.2 °F /  0.1 °C 30.2 °F /  -1.0 °C 30.2 in /  1022.2 hPa West 2 mph /  3.2 km/h 9 mph /  14.5 km/h 92 % 0 in /  0.0 mm
07:17 32.2 °F /  0.1 °C 30.2 °F /  -1.0 °C 30.2 in /  1022.2 hPa WNW 4 mph /  6.4 km/h 8 mph /  12.9 km/h 92 % 0 in /  0.0 mm
07:22 32.4 °F /  0.2 °C 30.4 °F /  -0.9 °C 30.2 in /  1022.2 hPa West 5 mph /  8.0 km/h 8 mph /  12.9 km/h 92 % 0 in /  0.0 mm
07:27 32.2 °F /  0.1 °C 29.8 °F /  -1.2 °C 30.2 in /  1022.2 hPa NW 5 mph /  8.0 km/h 8 mph /  12.9 km/h 91 % 0 in /  0.0 mm
07:32 32.2 °F /  0.1 °C 29.8 °F /  -1.2 °C 30.2 in /  1022.2 hPa West 3 mph /  4.8 km/h 8 mph /  12.9 km/h 91 % 0 in /  0.0 mm
07:37 32.2 °F /  0.1 °C 29.8 °F /  -1.2 °C 30.2 in /  1022.2 hPa Calm   8 mph /  12.9 km/h 91 % 0 in /  0.0 mm
07:52 32 °F /  0.0 °C 30 °F /  -1.1 °C 30.2 in /  1022.2 hPa WNW 4 mph /  6.4 km/h 9 mph /  14.5 km/h 92 % 0 in /  0.0 mm
08:07 32.2 °F /  0.1 °C 29.8 °F /  -1.2 °C 30.2 in /  1022.2 hPa West 8 mph /  12.9 km/h 13 mph /  20.9 km/h 91 % 0 in /  0.0 mm
08:12 32.2 °F /  0.1 °C 29.8 °F /  -1.2 °C 30.2 in /  1022.2 hPa West 3 mph /  4.8 km/h 13 mph /  20.9 km/h 91 % 0 in /  0.0 mm
08:17 32 °F /  0.0 °C 29.7 °F /  -1.3 °C 30.2 in /  1022.2 hPa WNW 4 mph /  6.4 km/h 13 mph /  20.9 km/h 91 % 0 in /  0.0 mm
08:22 31.8 °F /  -0.1 °C 29.5 °F /  -1.4 °C 30.2 in /  1022.2 hPa WSW 3 mph /  4.8 km/h 13 mph /  20.9 km/h 91 % 0 in /  0.0 mm
08:32 31.6 °F /  -0.2 °C 29.3 °F /  -1.5 °C 30.2 in /  1022.6 hPa West 4 mph /  6.4 km/h 7 mph /  11.3 km/h 91 % 0 in /  0.0 mm
08:37 31.5 °F /  -0.3 °C 29.1 °F /  -1.6 °C 30.2 in /  1022.6 hPa WSW 3 mph /  4.8 km/h 7 mph /  11.3 km/h 91 % 0 in /  0.0 mm
08:47 31.3 °F /  -0.4 °C 28.9 °F /  -1.7 °C 30.2 in /  1022.6 hPa West 3 mph /  4.8 km/h 6 mph /  9.7 km/h 91 % 0 in /  0.0 mm
08:52 30.9 °F /  -0.6 °C 28.9 °F /  -1.7 °C 30.2 in /  1022.6 hPa West 4 mph /  6.4 km/h 6 mph /  9.7 km/h 92 % 0 in /  0.0 mm
08:57 31.3 °F /  -0.4 °C 29.3 °F /  -1.5 °C 30.2 in /  1022.6 hPa West 1 mph /  1.6 km/h 7 mph /  11.3 km/h 92 % 0 in /  0.0 mm
09:02 31.3 °F /  -0.4 °C 29.3 °F /  -1.5 °C 30.2 in /  1022.6 hPa WNW 2 mph /  3.2 km/h 7 mph /  11.3 km/h 92 % 0 in /  0.0 mm
09:12 31.6 °F /  -0.2 °C 29.7 °F /  -1.3 °C 30.2 in /  1022.6 hPa West 4 mph /  6.4 km/h 12 mph /  19.3 km/h 92 % 0 in /  0.0 mm
09:17 31.6 °F /  -0.2 °C 29.7 °F /  -1.3 °C 30.2 in /  1022.6 hPa WNW 3 mph /  4.8 km/h 13 mph /  20.9 km/h 92 % 0 in /  0.0 mm
09:22 31.8 °F /  -0.1 °C 29.8 °F /  -1.2 °C 30.2 in /  1022.6 hPa WNW 6 mph /  9.7 km/h 13 mph /  20.9 km/h 92 % 0 in /  0.0 mm
09:32 31.8 °F /  -0.1 °C 29.8 °F /  -1.2 °C 30.2 in /  1022.6 hPa Calm   17 mph /  27.4 km/h 92 % 0 in /  0.0 mm
09:37 31.8 °F /  -0.1 °C 29.8 °F /  -1.2 °C 30.2 in /  1022.6 hPa Calm   11 mph /  17.7 km/h 92 % 0 in /  0.0 mm
09:42 31.8 °F /  -0.1 °C 29.8 °F /  -1.2 °C 30.2 in /  1022.6 hPa WNW 5 mph /  8.0 km/h 11 mph /  17.7 km/h 92 % 0 in /  0.0 mm
09:47 31.8 °F /  -0.1 °C 29.8 °F /  -1.2 °C 30.2 in /  1022.6 hPa WNW 4 mph /  6.4 km/h 7 mph /  11.3 km/h 92 % 0 in /  0.0 mm
09:52 31.8 °F /  -0.1 °C 29.8 °F /  -1.2 °C 30.2 in /  1022.9 hPa NW 4 mph /  6.4 km/h 7 mph /  11.3 km/h 92 % 0 in /  0.0 mm
10:02 32 °F /  0.0 °C 30 °F /  -1.1 °C 30.2 in /  1022.9 hPa West 4 mph /  6.4 km/h 13 mph /  20.9 km/h 92 % 0 in /  0.0 mm
10:12 32.2 °F /  0.1 °C 30.2 °F /  -1.0 °C 30.2 in /  1022.6 hPa NW 3 mph /  4.8 km/h 8 mph /  12.9 km/h 92 % 0 in /  0.0 mm
10:17 32.2 °F /  0.1 °C 30.2 °F /  -1.0 °C 30.2 in /  1022.9 hPa NW 8 mph /  12.9 km/h 8 mph /  12.9 km/h 92 % 0 in /  0.0 mm
10:27 32.2 °F /  0.1 °C 30.2 °F /  -1.0 °C 30.2 in /  1022.9 hPa Calm   9 mph /  14.5 km/h 92 % 0 in /  0.0 mm
10:32 32.2 °F /  0.1 °C 29.8 °F /  -1.2 °C 30.2 in /  1023.2 hPa WSW 4 mph /  6.4 km/h 9 mph /  14.5 km/h 91 % 0 in /  0.0 mm
10:42 32.4 °F /  0.2 °C 30 °F /  -1.1 °C 30.2 in /  1023.2 hPa West 4 mph /  6.4 km/h 9 mph /  14.5 km/h 91 % 0 in /  0.0 mm
10:47 32.4 °F /  0.2 °C 30 °F /  -1.1 °C 30.2 in /  1022.9 hPa SW 3 mph /  4.8 km/h 8 mph /  12.9 km/h 91 % 0 in /  0.0 mm
10:52 32.5 °F /  0.3 °C 30.2 °F /  -1.0 °C 30.2 in /  1023.2 hPa WSW 2 mph /  3.2 km/h 8 mph /  12.9 km/h 91 % 0 in /  0.0 mm
11:07 32.5 °F /  0.3 °C 30.2 °F /  -1.0 °C 30.2 in /  1022.9 hPa WSW 1 mph /  1.6 km/h 5 mph /  8.0 km/h 91 % 0 in /  0.0 mm
11:12 32.5 °F /  0.3 °C 30.2 °F /  -1.0 °C 30.2 in /  1022.9 hPa West 6 mph /  9.7 km/h 6 mph /  9.7 km/h 91 % 0 in /  0.0 mm
11:27 32.7 °F /  0.4 °C 30.4 °F /  -0.9 °C 30.2 in /  1022.9 hPa Calm   7 mph /  11.3 km/h 91 % 0 in /  0.0 mm
11:32 32.7 °F /  0.4 °C 30.4 °F /  -0.9 °C 30.2 in /  1022.9 hPa Calm   7 mph /  11.3 km/h 91 % 0 in /  0.0 mm
11:42 33.1 °F /  0.6 °C 30.7 °F /  -0.7 °C 30.2 in /  1022.9 hPa SW 2 mph /  3.2 km/h 3 mph /  4.8 km/h 91 % 0 in /  0.0 mm
11:47 33.3 °F /  0.7 °C 30.9 °F /  -0.6 °C 30.2 in /  1022.9 hPa SW 4 mph /  6.4 km/h 8 mph /  12.9 km/h 91 % 0 in /  0.0 mm
11:52 33.6 °F /  0.9 °C 31.3 °F /  -0.4 °C 30.2 in /  1022.9 hPa West 2 mph /  3.2 km/h 8 mph /  12.9 km/h 91 % 0 in /  0.0 mm
11:57 33.6 °F /  0.9 °C 30.9 °F /  -0.6 °C 30.2 in /  1022.9 hPa WSW 4 mph /  6.4 km/h 8 mph /  12.9 km/h 90 % 0 in /  0.0 mm
12:02 33.4 °F /  0.8 °C 30.7 °F /  -0.7 °C 30.2 in /  1022.9 hPa SW 3 mph /  4.8 km/h 8 mph /  12.9 km/h 90 % 0 in /  0.0 mm
12:12 33.4 °F /  0.8 °C 30.7 °F /  -0.7 °C 30.2 in /  1022.6 hPa WSW 4 mph /  6.4 km/h 7 mph /  11.3 km/h 90 % 0.01 in /  0.3 mm
12:17 33.4 °F /  0.8 °C 30.7 °F /  -0.7 °C 30.2 in /  1022.6 hPa SW 4 mph /  6.4 km/h 6 mph /  9.7 km/h 90 % 0.01 in /  0.3 mm
12:27 33.4 °F /  0.8 °C 30.7 °F /  -0.7 °C 30.2 in /  1022.6 hPa WSW 2 mph /  3.2 km/h 8 mph /  12.9 km/h 90 % 0.01 in /  0.3 mm
12:32 33.3 °F /  0.7 °C 30.6 °F /  -0.8 °C 30.2 in /  1022.6 hPa WSW 5 mph /  8.0 km/h 8 mph /  12.9 km/h 90 % 0.01 in /  0.3 mm
12:37 33.1 °F /  0.6 °C 30.7 °F /  -0.7 °C 30.2 in /  1022.6 hPa SW 6 mph /  9.7 km/h 8 mph /  12.9 km/h 91 % 0.01 in /  0.3 mm
12:42 33.1 °F /  0.6 °C 30.7 °F /  -0.7 °C 30.2 in /  1022.6 hPa SW 3 mph /  4.8 km/h 8 mph /  12.9 km/h 91 % 0.01 in /  0.3 mm
12:52 33.1 °F /  0.6 °C 31.1 °F /  -0.5 °C 30.2 in /  1022.6 hPa SW 5 mph /  8.0 km/h 8 mph /  12.9 km/h 92 % 0.01 in /  0.3 mm
12:57 33.1 °F /  0.6 °C 30.7 °F /  -0.7 °C 30.2 in /  1022.6 hPa SSW 3 mph /  4.8 km/h 6 mph /  9.7 km/h 91 % 0.01 in /  0.3 mm
13:02 33.1 °F /  0.6 °C 31.1 °F /  -0.5 °C 30.2 in /  1022.2 hPa SSE 6 mph /  9.7 km/h 6 mph /  9.7 km/h 92 % 0.01 in /  0.3 mm
13:07 32.9 °F /  0.5 °C 30.9 °F /  -0.6 °C 30.2 in /  1022.2 hPa SW 3 mph /  4.8 km/h 7 mph /  11.3 km/h 92 % 0 in /  0.0 mm
13:17 32.7 °F /  0.4 °C 30.7 °F /  -0.7 °C 30.2 in /  1022.2 hPa SSW 4 mph /  6.4 km/h 7 mph /  11.3 km/h 92 % 0 in /  0.0 mm
13:22 32.9 °F /  0.5 °C 30.9 °F /  -0.6 °C 30.2 in /  1022.2 hPa SW 7 mph /  11.3 km/h 7 mph /  11.3 km/h 92 % 0 in /  0.0 mm
13:32 32.7 °F /  0.4 °C 30.7 °F /  -0.7 °C 30.2 in /  1022.2 hPa SW 3 mph /  4.8 km/h 8 mph /  12.9 km/h 92 % 0 in /  0.0 mm
13:47 33.1 °F /  0.6 °C 31.1 °F /  -0.5 °C 30.2 in /  1021.9 hPa SW 6 mph /  9.7 km/h 9 mph /  14.5 km/h 92 % 0 in /  0.0 mm
13:52 33.1 °F /  0.6 °C 31.1 °F /  -0.5 °C 30.2 in /  1022.2 hPa SW 3 mph /  4.8 km/h 9 mph /  14.5 km/h 92 % 0 in /  0.0 mm
13:57 33.3 °F /  0.7 °C 31.1 °F /  -0.5 °C 30.2 in /  1021.9 hPa South 4 mph /  6.4 km/h 9 mph /  14.5 km/h 92 % 0 in /  0.0 mm
14:02 33.3 °F /  0.7 °C 30.9 °F /  -0.6 °C 30.2 in /  1021.9 hPa WSW 3 mph /  4.8 km/h 9 mph /  14.5 km/h 91 % 0 in /  0.0 mm
14:17 33.4 °F /  0.8 °C 31.1 °F /  -0.5 °C 30.2 in /  1021.9 hPa SW 4 mph /  6.4 km/h 9 mph /  14.5 km/h 91 % 0 in /  0.0 mm
14:22 33.4 °F /  0.8 °C 31.1 °F /  -0.5 °C 30.2 in /  1021.6 hPa SSW 4 mph /  6.4 km/h 7 mph /  11.3 km/h 91 % 0 in /  0.0 mm
14:32 33.6 °F /  0.9 °C 31.3 °F /  -0.4 °C 30.2 in /  1021.6 hPa SW 4 mph /  6.4 km/h 7 mph /  11.3 km/h 91 % 0 in /  0.0 mm
14:52 34 °F /  1.1 °C 31.6 °F /  -0.2 °C 30.2 in /  1020.9 hPa SSW 2 mph /  3.2 km/h 5 mph /  8.0 km/h 91 % 0 in /  0.0 mm
14:57 34 °F /  1.1 °C 31.6 °F /  -0.2 °C 30.2 in /  1020.9 hPa SW 3 mph /  4.8 km/h 5 mph /  8.0 km/h 91 % 0 in /  0.0 mm
15:02 34 °F /  1.1 °C 31.6 °F /  -0.2 °C 30.2 in /  1020.9 hPa SW 4 mph /  6.4 km/h 7 mph /  11.3 km/h 91 % 0 in /  0.0 mm
15:07 34.2 °F /  1.2 °C 31.8 °F /  -0.1 °C 30.1 in /  1020.5 hPa SSW 2 mph /  3.2 km/h 7 mph /  11.3 km/h 91 % 0 in /  0.0 mm
15:12 34.2 °F /  1.2 °C 32 °F /  0.0 °C 30.1 in /  1020.5 hPa SSW 2 mph /  3.2 km/h 7 mph /  11.3 km/h 92 % 0 in /  0.0 mm
15:17 34.3 °F /  1.3 °C 32.2 °F /  0.1 °C 30.1 in /  1020.5 hPa SSW 4 mph /  6.4 km/h 7 mph /  11.3 km/h 92 % 0 in /  0.0 mm
15:27 34.7 °F /  1.5 °C 32.4 °F /  0.2 °C 30.1 in /  1020.2 hPa SSE 2 mph /  3.2 km/h 8 mph /  12.9 km/h 91 % 0 in /  0.0 mm
15:32 34.5 °F /  1.4 °C 32.2 °F /  0.1 °C 30.1 in /  1020.2 hPa SSE 1 mph /  1.6 km/h 5 mph /  8.0 km/h 91 % 0 in /  0.0 mm
15:37 34.5 °F /  1.4 °C 32.2 °F /  0.1 °C 30.1 in /  1020.2 hPa South 2 mph /  3.2 km/h 5 mph /  8.0 km/h 91 % 0 in /  0.0 mm
15:42 34.5 °F /  1.4 °C 32.2 °F /  0.1 °C 30.1 in /  1020.2 hPa South 1 mph /  1.6 km/h 5 mph /  8.0 km/h 91 % 0 in /  0.0 mm
15:52 34.5 °F /  1.4 °C 32.2 °F /  0.1 °C 30.1 in /  1020.2 hPa SSW 1 mph /  1.6 km/h 5 mph /  8.0 km/h 91 % 0 in /  0.0 mm
16:02 34.5 °F /  1.4 °C 32.2 °F /  0.1 °C 30.1 in /  1020.2 hPa Calm   4 mph /  6.4 km/h 91 % 0 in /  0.0 mm
16:07 34.5 °F /  1.4 °C 32.2 °F /  0.1 °C 30.1 in /  1020.2 hPa South 1 mph /  1.6 km/h 4 mph /  6.4 km/h 91 % 0 in /  0.0 mm
16:12 34.5 °F /  1.4 °C 32.2 °F /  0.1 °C 30.1 in /  1020.2 hPa SSE 1 mph /  1.6 km/h 4 mph /  6.4 km/h 91 % 0 in /  0.0 mm
16:22 34.5 °F /  1.4 °C 32.2 °F /  0.1 °C 30.1 in /  1019.9 hPa SW 2 mph /  3.2 km/h 3 mph /  4.8 km/h 91 % 0 in /  0.0 mm
16:27 34.3 °F /  1.3 °C 32 °F /  0.0 °C 30.1 in /  1019.9 hPa SSE 1 mph /  1.6 km/h 3 mph /  4.8 km/h 91 % 0 in /  0.0 mm
16:32 34.3 °F /  1.3 °C 32 °F /  0.0 °C 30.1 in /  1019.9 hPa Calm   3 mph /  4.8 km/h 91 % 0 in /  0.0 mm
16:42 34.3 °F /  1.3 °C 32.2 °F /  0.1 °C 30.1 in /  1019.9 hPa SE 2 mph /  3.2 km/h 3 mph /  4.8 km/h 92 % 0 in /  0.0 mm
16:47 34.3 °F /  1.3 °C 32.2 °F /  0.1 °C 30.1 in /  1019.9 hPa ESE 2 mph /  3.2 km/h 3 mph /  4.8 km/h 92 % 0 in /  0.0 mm
16:52 34.3 °F /  1.3 °C 32.2 °F /  0.1 °C 30.1 in /  1019.5 hPa ESE 1 mph /  1.6 km/h 4 mph /  6.4 km/h 92 % 0 in /  0.0 mm
16:57 34.3 °F /  1.3 °C 32.2 °F /  0.1 °C 30.1 in /  1019.5 hPa Calm   4 mph /  6.4 km/h 92 % 0 in /  0.0 mm
17:02 34.3 °F /  1.3 °C 32.2 °F /  0.1 °C 30.1 in /  1019.5 hPa ESE 1 mph /  1.6 km/h 4 mph /  6.4 km/h 92 % 0 in /  0.0 mm
17:12 34.2 °F /  1.2 °C 32 °F /  0.0 °C 30.1 in /  1019.2 hPa Calm   3 mph /  4.8 km/h 92 % 0 in /  0.0 mm
17:22 34.2 °F /  1.2 °C 32 °F /  0.0 °C 30.1 in /  1019.2 hPa Calm   4 mph /  6.4 km/h 92 % 0 in /  0.0 mm
17:27 34 °F /  1.1 °C 31.8 °F /  -0.1 °C 30.1 in /  1019.2 hPa Calm   3 mph /  4.8 km/h 92 % 0 in /  0.0 mm
17:32 34 °F /  1.1 °C 31.8 °F /  -0.1 °C 30.1 in /  1019.2 hPa Calm   3 mph /  4.8 km/h 92 % 0 in /  0.0 mm
17:42 33.6 °F /  0.9 °C 31.8 °F /  -0.1 °C 30.1 in /  1018.8 hPa Calm   2 mph /  3.2 km/h 93 % 0 in /  0.0 mm
18:02 33.4 °F /  0.8 °C 31.6 °F /  -0.2 °C 30.1 in /  1018.8 hPa Calm   3 mph /  4.8 km/h 93 % 0 in /  0.0 mm
18:07 33.4 °F /  0.8 °C 31.6 °F /  -0.2 °C 30.1 in /  1018.8 hPa SE 1 mph /  1.6 km/h 3 mph /  4.8 km/h 93 % 0 in /  0.0 mm
18:17 33.4 °F /  0.8 °C 31.6 °F /  -0.2 °C 30.1 in /  1018.5 hPa Calm   3 mph /  4.8 km/h 93 % 0 in /  0.0 mm
18:22 33.4 °F /  0.8 °C 31.6 °F /  -0.2 °C 30.1 in /  1018.5 hPa SSE 2 mph /  3.2 km/h 3 mph /  4.8 km/h 93 % 0 in /  0.0 mm
18:32 33.6 °F /  0.9 °C 31.8 °F /  -0.1 °C 30.1 in /  1018.2 hPa Calm   3 mph /  4.8 km/h 93 % 0 in /  0.0 mm
18:37 33.6 °F /  0.9 °C 31.8 °F /  -0.1 °C 30.1 in /  1018.2 hPa Calm   3 mph /  4.8 km/h 93 % 0 in /  0.0 mm
18:42 33.6 °F /  0.9 °C 31.8 °F /  -0.1 °C 30.1 in /  1018.2 hPa Calm   4 mph /  6.4 km/h 93 % 0 in /  0.0 mm
18:47 33.6 °F /  0.9 °C 31.8 °F /  -0.1 °C 30.1 in /  1018.2 hPa Calm   4 mph /  6.4 km/h 93 % 0 in /  0.0 mm
18:52 33.6 °F /  0.9 °C 31.8 °F /  -0.1 °C 30.1 in /  1017.8 hPa Calm   4 mph /  6.4 km/h 93 % 0 in /  0.0 mm
18:57 33.8 °F /  1.0 °C 32 °F /  0.0 °C 30.1 in /  1017.8 hPa Calm   4 mph /  6.4 km/h 93 % 0 in /  0.0 mm
19:02 33.6 °F /  0.9 °C 31.8 °F /  -0.1 °C 30.1 in /  1017.8 hPa Calm   4 mph /  6.4 km/h 93 % 0 in /  0.0 mm
19:07 33.6 °F /  0.9 °C 31.8 °F /  -0.1 °C 30.1 in /  1017.8 hPa Calm   2 mph /  3.2 km/h 93 % 0 in /  0.0 mm
19:17 33.8 °F /  1.0 °C 32 °F /  0.0 °C 30.1 in /  1017.8 hPa Calm   3 mph /  4.8 km/h 93 % 0 in /  0.0 mm
19:22 33.8 °F /  1.0 °C 32 °F /  0.0 °C 30.1 in /  1017.8 hPa SSE 2 mph /  3.2 km/h 3 mph /  4.8 km/h 93 % 0 in /  0.0 mm
19:32 33.8 °F /  1.0 °C 32 °F /  0.0 °C 30.1 in /  1017.5 hPa Calm   4 mph /  6.4 km/h 93 % 0 in /  0.0 mm
19:37 33.8 °F /  1.0 °C 32 °F /  0.0 °C 30.1 in /  1017.5 hPa SSW 1 mph /  1.6 km/h 4 mph /  6.4 km/h 93 % 0 in /  0.0 mm
19:52 33.8 °F /  1.0 °C 32 °F /  0.0 °C 30.1 in /  1017.5 hPa SW 2 mph /  3.2 km/h 4 mph /  6.4 km/h 93 % 0 in /  0.0 mm
19:57 33.8 °F /  1.0 °C 32 °F /  0.0 °C 30.1 in /  1017.5 hPa SSE 1 mph /  1.6 km/h 5 mph /  8.0 km/h 93 % 0 in /  0.0 mm
20:17 33.6 °F /  0.9 °C 31.8 °F /  -0.1 °C 30 in /  1017.2 hPa Calm   4 mph /  6.4 km/h 93 % 0 in /  0.0 mm
20:27 33.6 °F /  0.9 °C 31.8 °F /  -0.1 °C 30 in /  1016.8 hPa Calm   3 mph /  4.8 km/h 93 % 0 in /  0.0 mm
20:32 33.4 °F /  0.8 °C 31.8 °F /  -0.1 °C 30 in /  1016.8 hPa Calm   3 mph /  4.8 km/h 94 % 0 in /  0.0 mm
20:42 33.4 °F /  0.8 °C 31.8 °F /  -0.1 °C 30 in /  1016.8 hPa Calm   2 mph /  3.2 km/h 94 % 0 in /  0.0 mm
20:47 33.4 °F /  0.8 °C 31.8 °F /  -0.1 °C 30 in /  1016.8 hPa SE 1 mph /  1.6 km/h 1 mph /  1.6 km/h 94 % 0 in /  0.0 mm
21:02 33.6 °F /  0.9 °C 32 °F /  0.0 °C 30 in /  1016.1 hPa Calm   1 mph /  1.6 km/h 94 % 0 in /  0.0 mm
21:17 33.6 °F /  0.9 °C 32 °F /  0.0 °C 30 in /  1016.1 hPa SSE 1 mph /  1.6 km/h 2 mph /  3.2 km/h 94 % 0 in /  0.0 mm
21:22 33.6 °F /  0.9 °C 32 °F /  0.0 °C 30 in /  1016.1 hPa Calm   2 mph /  3.2 km/h 94 % 0 in /  0.0 mm
21:32 33.6 °F /  0.9 °C 32 °F /  0.0 °C 30 in /  1016.1 hPa Calm   4 mph /  6.4 km/h 94 % 0 in /  0.0 mm
21:37 33.6 °F /  0.9 °C 32 °F /  0.0 °C 30 in /  1016.1 hPa SSE 2 mph /  3.2 km/h 4 mph /  6.4 km/h 94 % 0 in /  0.0 mm
21:42 33.6 °F /  0.9 °C 31.8 °F /  -0.1 °C 30 in /  1015.8 hPa SSE 1 mph /  1.6 km/h 3 mph /  4.8 km/h 93 % 0 in /  0.0 mm
21:47 33.6 °F /  0.9 °C 31.8 °F /  -0.1 °C 30 in /  1015.8 hPa SSE 1 mph /  1.6 km/h 3 mph /  4.8 km/h 93 % 0 in /  0.0 mm
21:52 33.6 °F /  0.9 °C 31.8 °F /  -0.1 °C 30 in /  1015.8 hPa South 1 mph /  1.6 km/h 3 mph /  4.8 km/h 93 % 0 in /  0.0 mm
22:02 33.6 °F /  0.9 °C 32 °F /  0.0 °C 30 in /  1015.5 hPa South 2 mph /  3.2 km/h 3 mph /  4.8 km/h 94 % 0 in /  0.0 mm
22:17 33.4 °F /  0.8 °C 31.8 °F /  -0.1 °C 30 in /  1015.1 hPa Calm   3 mph /  4.8 km/h 94 % 0 in /  0.0 mm
22:37 33.3 °F /  0.7 °C 31.6 °F /  -0.2 °C 30 in /  1014.8 hPa Calm   2 mph /  3.2 km/h 94 % 0 in /  0.0 mm
22:42 33.3 °F /  0.7 °C 31.6 °F /  -0.2 °C 30 in /  1014.8 hPa ESE 1 mph /  1.6 km/h 2 mph /  3.2 km/h 94 % 0 in /  0.0 mm
22:47 33.3 °F /  0.7 °C 31.6 °F /  -0.2 °C 30 in /  1014.4 hPa SE 1 mph /  1.6 km/h 3 mph /  4.8 km/h 94 % 0 in /  0.0 mm
22:52 33.3 °F /  0.7 °C 31.6 °F /  -0.2 °C 30 in /  1014.4 hPa Calm   3 mph /  4.8 km/h 94 % 0 in /  0.0 mm
22:57 33.1 °F /  0.6 °C 31.5 °F /  -0.3 °C 30 in /  1014.4 hPa Calm   2 mph /  3.2 km/h 94 % 0 in /  0.0 mm
23:02 33.1 °F /  0.6 °C 31.5 °F /  -0.3 °C 29.9 in /  1014.1 hPa Calm   2 mph /  3.2 km/h 94 % 0 in /  0.0 mm
23:12 32.9 °F /  0.5 °C 31.3 °F /  -0.4 °C 29.9 in /  1014.1 hPa Calm   2 mph /  3.2 km/h 94 % 0 in /  0.0 mm
23:22 32.7 °F /  0.4 °C 31.1 °F /  -0.5 °C 29.9 in /  1013.8 hPa Calm   1 mph /  1.6 km/h 94 % 0 in /  0.0 mm
23:32 32.7 °F /  0.4 °C 31.1 °F /  -0.5 °C 29.9 in /  1013.8 hPa Calm   2 mph /  3.2 km/h 94 % 0 in /  0.0 mm
23:37 32.7 °F /  0.4 °C 31.1 °F /  -0.5 °C 29.9 in /  1013.8 hPa Calm   2 mph /  3.2 km/h 94 % 0 in /  0.0 mm
23:42 32.9 °F /  0.5 °C 31.3 °F /  -0.4 °C 29.9 in /  1013.8 hPa Calm   1 mph /  1.6 km/h 94 % 0 in /  0.0 mm
23:47 32.9 °F /  0.5 °C 31.3 °F /  -0.4 °C 29.9 in /  1013.4 hPa SSW 1 mph /  1.6 km/h 1 mph /  1.6 km/h 94 % 0 in /  0.0 mm
23:57 33.1 °F /  0.6 °C 31.5 °F /  -0.3 °C 29.9 in /  1013.4 hPa Calm   2 mph /  3.2 km/h 94 % 0 in /  0.0 mm
Meteo18
Compliments of Weather Underground - 4 mb

Script developed by  Jim McMurry - jmcmurry@mwt.net Adapted for the template by  Wim van der Kuil - Leuven-Template.eu

You find our weather info also at:

European Weather Network

Weather Underground

Equipment we use:

Weather-station
Davis Vue

Weather-program
Meteohub

Weather-server
Raspberry PI 2 B+

Provider
1 and 1

Davis Vue

Meteohub

Raspberry PI 2 B+

1 and 1